sensor_id;sensor_type;location;lat;lon;timestamp;P1;durP1;ratioP1;P2;durP2;ratioP2
56075;SDS011;41951;49.022;12.066;2024-03-08T00:00:26;26.80;;;14.18;;
56075;SDS011;41951;49.022;12.066;2024-03-08T00:02:52;27.52;;;13.95;;
56075;SDS011;41951;49.022;12.066;2024-03-08T00:05:19;28.50;;;14.40;;
56075;SDS011;41951;49.022;12.066;2024-03-08T00:07:45;27.73;;;14.77;;
56075;SDS011;41951;49.022;12.066;2024-03-08T00:10:12;27.08;;;14.50;;
56075;SDS011;41951;49.022;12.066;2024-03-08T00:15:07;27.73;;;14.32;;
56075;SDS011;41951;49.022;12.066;2024-03-08T00:17:39;25.17;;;14.20;;
56075;SDS011;41951;49.022;12.066;2024-03-08T00:20:05;30.30;;;15.63;;
56075;SDS011;41951;49.022;12.066;2024-03-08T00:22:33;25.27;;;13.95;;
56075;SDS011;41951;49.022;12.066;2024-03-08T00:24:59;30.20;;;15.27;;
56075;SDS011;41951;49.022;12.066;2024-03-08T00:27:25;26.23;;;14.20;;
56075;SDS011;41951;49.022;12.066;2024-03-08T00:29:50;27.20;;;14.52;;
56075;SDS011;41951;49.022;12.066;2024-03-08T00:32:16;28.55;;;14.85;;
56075;SDS011;41951;49.022;12.066;2024-03-08T00:34:42;24.25;;;14.23;;
56075;SDS011;41951;49.022;12.066;2024-03-08T00:37:08;29.75;;;14.50;;
56075;SDS011;41951;49.022;12.066;2024-03-08T00:39:33;27.10;;;14.48;;
56075;SDS011;41951;49.022;12.066;2024-03-08T00:41:59;31.70;;;15.10;;
56075;SDS011;41951;49.022;12.066;2024-03-08T00:44:24;27.02;;;14.73;;
56075;SDS011;41951;49.022;12.066;2024-03-08T00:46:50;31.55;;;15.23;;
56075;SDS011;41951;49.022;12.066;2024-03-08T00:49:16;29.60;;;15.00;;
56075;SDS011;41951;49.022;12.066;2024-03-08T00:51:42;28.67;;;14.57;;
56075;SDS011;41951;49.022;12.066;2024-03-08T00:54:08;30.00;;;14.88;;
56075;SDS011;41951;49.022;12.066;2024-03-08T00:56:34;31.23;;;16.42;;
56075;SDS011;41951;49.022;12.066;2024-03-08T00:59:00;33.60;;;15.85;;
56075;SDS011;41951;49.022;12.066;2024-03-08T01:01:27;34.55;;;17.20;;
56075;SDS011;41951;49.022;12.066;2024-03-08T01:03:53;27.67;;;14.20;;
56075;SDS011;41951;49.022;12.066;2024-03-08T01:06:19;30.30;;;15.13;;
56075;SDS011;41951;49.022;12.066;2024-03-08T01:08:45;29.50;;;14.23;;
56075;SDS011;41951;49.022;12.066;2024-03-08T01:11:12;30.08;;;15.10;;
56075;SDS011;41951;49.022;12.066;2024-03-08T01:13:39;26.48;;;14.30;;
56075;SDS011;41951;49.022;12.066;2024-03-08T01:16:04;27.73;;;14.05;;
56075;SDS011;41951;49.022;12.066;2024-03-08T01:18:30;32.75;;;15.18;;
56075;SDS011;41951;49.022;12.066;2024-03-08T01:20:57;25.90;;;14.18;;
56075;SDS011;41951;49.022;12.066;2024-03-08T01:23:22;28.40;;;15.35;;
56075;SDS011;41951;49.022;12.066;2024-03-08T01:25:48;28.17;;;14.55;;
56075;SDS011;41951;49.022;12.066;2024-03-08T01:28:15;25.35;;;13.90;;
56075;SDS011;41951;49.022;12.066;2024-03-08T01:30:40;25.20;;;13.65;;
56075;SDS011;41951;49.022;12.066;2024-03-08T01:33:07;27.08;;;15.05;;
56075;SDS011;41951;49.022;12.066;2024-03-08T01:35:33;28.05;;;15.18;;
56075;SDS011;41951;49.022;12.066;2024-03-08T01:37:59;27.75;;;15.15;;
56075;SDS011;41951;49.022;12.066;2024-03-08T01:40:24;26.67;;;14.10;;
56075;SDS011;41951;49.022;12.066;2024-03-08T01:42:50;27.83;;;14.68;;
56075;SDS011;41951;49.022;12.066;2024-03-08T01:45:16;26.85;;;14.88;;
56075;SDS011;41951;49.022;12.066;2024-03-08T01:47:41;26.58;;;13.48;;
56075;SDS011;41951;49.022;12.066;2024-03-08T01:50:07;31.23;;;15.40;;
56075;SDS011;41951;49.022;12.066;2024-03-08T01:52:34;25.45;;;14.30;;
56075;SDS011;41951;49.022;12.066;2024-03-08T01:55:00;28.35;;;14.63;;
56075;SDS011;41951;49.022;12.066;2024-03-08T01:57:28;28.92;;;14.82;;
56075;SDS011;41951;49.022;12.066;2024-03-08T01:59:58;28.83;;;14.27;;
56075;SDS011;41951;49.022;12.066;2024-03-08T02:02:28;28.07;;;15.40;;
56075;SDS011;41951;49.022;12.066;2024-03-08T02:04:56;28.10;;;15.23;;
56075;SDS011;41951;49.022;12.066;2024-03-08T02:07:22;27.38;;;14.77;;
56075;SDS011;41951;49.022;12.066;2024-03-08T02:09:48;26.02;;;13.90;;
56075;SDS011;41951;49.022;12.066;2024-03-08T02:12:13;29.48;;;15.77;;
56075;SDS011;41951;49.022;12.066;2024-03-08T02:14:39;28.85;;;14.70;;
56075;SDS011;41951;49.022;12.066;2024-03-08T02:17:05;26.85;;;14.70;;
56075;SDS011;41951;49.022;12.066;2024-03-08T02:19:30;26.63;;;13.30;;
56075;SDS011;41951;49.022;12.066;2024-03-08T02:21:57;28.42;;;15.45;;
56075;SDS011;41951;49.022;12.066;2024-03-08T02:24:22;28.42;;;14.25;;
56075;SDS011;41951;49.022;12.066;2024-03-08T02:26:49;30.85;;;15.98;;
56075;SDS011;41951;49.022;12.066;2024-03-08T02:29:14;28.48;;;14.80;;
56075;SDS011;41951;49.022;12.066;2024-03-08T02:31:40;30.45;;;15.43;;
56075;SDS011;41951;49.022;12.066;2024-03-08T02:34:06;27.00;;;14.43;;
56075;SDS011;41951;49.022;12.066;2024-03-08T02:36:31;27.75;;;14.32;;
56075;SDS011;41951;49.022;12.066;2024-03-08T02:39:00;27.80;;;14.85;;
56075;SDS011;41951;49.022;12.066;2024-03-08T02:41:30;27.58;;;14.52;;
56075;SDS011;41951;49.022;12.066;2024-03-08T02:43:56;26.92;;;14.63;;
56075;SDS011;41951;49.022;12.066;2024-03-08T02:46:21;27.92;;;14.20;;
56075;SDS011;41951;49.022;12.066;2024-03-08T02:48:47;29.48;;;15.07;;
56075;SDS011;41951;49.022;12.066;2024-03-08T02:51:13;29.27;;;15.57;;
56075;SDS011;41951;49.022;12.066;2024-03-08T02:53:38;29.75;;;14.90;;
56075;SDS011;41951;49.022;12.066;2024-03-08T02:56:04;31.95;;;15.55;;
56075;SDS011;41951;49.022;12.066;2024-03-08T02:58:33;26.77;;;14.32;;
56075;SDS011;41951;49.022;12.066;2024-03-08T03:00:59;28.83;;;15.43;;
56075;SDS011;41951;49.022;12.066;2024-03-08T03:03:25;28.63;;;15.93;;
56075;SDS011;41951;49.022;12.066;2024-03-08T03:05:51;28.55;;;15.32;;
56075;SDS011;41951;49.022;12.066;2024-03-08T03:08:20;36.63;;;16.02;;
56075;SDS011;41951;49.022;12.066;2024-03-08T03:10:47;31.08;;;15.13;;
56075;SDS011;41951;49.022;12.066;2024-03-08T03:13:13;26.83;;;15.48;;
56075;SDS011;41951;49.022;12.066;2024-03-08T03:15:40;28.90;;;14.98;;
56075;SDS011;41951;49.022;12.066;2024-03-08T03:18:08;28.67;;;14.93;;
56075;SDS011;41951;49.022;12.066;2024-03-08T03:20:33;26.38;;;14.77;;
56075;SDS011;41951;49.022;12.066;2024-03-08T03:23:05;25.38;;;14.32;;
56075;SDS011;41951;49.022;12.066;2024-03-08T03:25:33;31.10;;;16.35;;
56075;SDS011;41951;49.022;12.066;2024-03-08T03:28:00;27.95;;;15.40;;
56075;SDS011;41951;49.022;12.066;2024-03-08T03:30:27;29.27;;;15.10;;
56075;SDS011;41951;49.022;12.066;2024-03-08T03:32:57;29.83;;;15.75;;
56075;SDS011;41951;49.022;12.066;2024-03-08T03:35:25;27.88;;;15.18;;
56075;SDS011;41951;49.022;12.066;2024-03-08T03:37:52;29.55;;;15.32;;
56075;SDS011;41951;49.022;12.066;2024-03-08T03:40:27;23.02;;;13.68;;
56075;SDS011;41951;49.022;12.066;2024-03-08T03:42:54;28.20;;;15.60;;
56075;SDS011;41951;49.022;12.066;2024-03-08T03:45:20;27.25;;;15.63;;
56075;SDS011;41951;49.022;12.066;2024-03-08T03:47:45;26.15;;;14.27;;
56075;SDS011;41951;49.022;12.066;2024-03-08T03:50:11;27.23;;;14.95;;
56075;SDS011;41951;49.022;12.066;2024-03-08T03:52:37;28.77;;;15.52;;
56075;SDS011;41951;49.022;12.066;2024-03-08T03:55:03;33.05;;;15.20;;
56075;SDS011;41951;49.022;12.066;2024-03-08T03:57:29;29.05;;;14.93;;
56075;SDS011;41951;49.022;12.066;2024-03-08T03:59:55;30.70;;;15.18;;
56075;SDS011;41951;49.022;12.066;2024-03-08T04:02:22;29.17;;;15.38;;
56075;SDS011;41951;49.022;12.066;2024-03-08T04:04:47;27.55;;;15.70;;
56075;SDS011;41951;49.022;12.066;2024-03-08T04:07:14;29.38;;;15.63;;
56075;SDS011;41951;49.022;12.066;2024-03-08T04:09:39;27.58;;;15.05;;
56075;SDS011;41951;49.022;12.066;2024-03-08T04:12:05;28.48;;;15.65;;
56075;SDS011;41951;49.022;12.066;2024-03-08T04:14:31;29.77;;;15.18;;
56075;SDS011;41951;49.022;12.066;2024-03-08T04:16:56;32.25;;;15.98;;
56075;SDS011;41951;49.022;12.066;2024-03-08T04:19:22;30.60;;;15.43;;
56075;SDS011;41951;49.022;12.066;2024-03-08T04:21:49;33.13;;;15.68;;
56075;SDS011;41951;49.022;12.066;2024-03-08T04:24:14;28.23;;;15.43;;
56075;SDS011;41951;49.022;12.066;2024-03-08T04:26:42;25.50;;;14.20;;
56075;SDS011;41951;49.022;12.066;2024-03-08T04:29:07;28.05;;;14.63;;
56075;SDS011;41951;49.022;12.066;2024-03-08T04:31:33;28.50;;;14.82;;
56075;SDS011;41951;49.022;12.066;2024-03-08T04:33:58;29.23;;;14.70;;
56075;SDS011;41951;49.022;12.066;2024-03-08T04:36:24;29.83;;;14.43;;
56075;SDS011;41951;49.022;12.066;2024-03-08T04:38:49;30.25;;;15.80;;
56075;SDS011;41951;49.022;12.066;2024-03-08T04:41:16;32.67;;;15.35;;
56075;SDS011;41951;49.022;12.066;2024-03-08T04:43:42;27.92;;;15.30;;
56075;SDS011;41951;49.022;12.066;2024-03-08T04:46:08;33.30;;;16.85;;
56075;SDS011;41951;49.022;12.066;2024-03-08T04:48:33;31.98;;;16.52;;
56075;SDS011;41951;49.022;12.066;2024-03-08T04:51:01;32.65;;;16.60;;
56075;SDS011;41951;49.022;12.066;2024-03-08T04:53:28;31.25;;;16.45;;
56075;SDS011;41951;49.022;12.066;2024-03-08T04:55:54;29.13;;;15.70;;
56075;SDS011;41951;49.022;12.066;2024-03-08T04:58:22;27.80;;;15.73;;
56075;SDS011;41951;49.022;12.066;2024-03-08T05:00:48;32.05;;;17.08;;
56075;SDS011;41951;49.022;12.066;2024-03-08T05:03:14;33.58;;;17.23;;
56075;SDS011;41951;49.022;12.066;2024-03-08T05:05:39;30.45;;;14.77;;
56075;SDS011;41951;49.022;12.066;2024-03-08T05:08:05;29.33;;;15.02;;
56075;SDS011;41951;49.022;12.066;2024-03-08T05:10:31;31.30;;;15.68;;
56075;SDS011;41951;49.022;12.066;2024-03-08T05:12:57;31.52;;;17.30;;
56075;SDS011;41951;49.022;12.066;2024-03-08T05:15:23;34.95;;;16.33;;
56075;SDS011;41951;49.022;12.066;2024-03-08T05:17:49;27.90;;;15.77;;
56075;SDS011;41951;49.022;12.066;2024-03-08T05:20:14;28.90;;;16.00;;
56075;SDS011;41951;49.022;12.066;2024-03-08T05:22:42;32.97;;;15.35;;
56075;SDS011;41951;49.022;12.066;2024-03-08T05:25:08;29.30;;;15.20;;
56075;SDS011;41951;49.022;12.066;2024-03-08T05:27:34;29.13;;;16.08;;
56075;SDS011;41951;49.022;12.066;2024-03-08T05:30:01;33.58;;;15.85;;
56075;SDS011;41951;49.022;12.066;2024-03-08T05:32:29;36.40;;;16.75;;
56075;SDS011;41951;49.022;12.066;2024-03-08T05:34:54;30.80;;;16.63;;
56075;SDS011;41951;49.022;12.066;2024-03-08T05:37:20;31.45;;;15.45;;
56075;SDS011;41951;49.022;12.066;2024-03-08T05:39:45;29.90;;;16.45;;
56075;SDS011;41951;49.022;12.066;2024-03-08T05:42:11;31.65;;;15.93;;
56075;SDS011;41951;49.022;12.066;2024-03-08T05:44:37;30.33;;;16.60;;
56075;SDS011;41951;49.022;12.066;2024-03-08T05:47:05;35.38;;;16.20;;
56075;SDS011;41951;49.022;12.066;2024-03-08T05:49:32;33.38;;;15.95;;
56075;SDS011;41951;49.022;12.066;2024-03-08T05:51:57;31.42;;;16.48;;
56075;SDS011;41951;49.022;12.066;2024-03-08T05:54:25;30.35;;;16.58;;
56075;SDS011;41951;49.022;12.066;2024-03-08T05:56:52;28.55;;;15.15;;
56075;SDS011;41951;49.022;12.066;2024-03-08T05:59:18;34.97;;;17.02;;
56075;SDS011;41951;49.022;12.066;2024-03-08T06:01:43;31.55;;;16.10;;
56075;SDS011;41951;49.022;12.066;2024-03-08T06:04:11;34.53;;;17.08;;
56075;SDS011;41951;49.022;12.066;2024-03-08T06:06:36;31.67;;;16.42;;
56075;SDS011;41951;49.022;12.066;2024-03-08T06:09:02;33.97;;;17.15;;
56075;SDS011;41951;49.022;12.066;2024-03-08T06:11:34;32.22;;;16.33;;
56075;SDS011;41951;49.022;12.066;2024-03-08T06:14:00;32.47;;;17.60;;
56075;SDS011;41951;49.022;12.066;2024-03-08T06:16:26;30.58;;;14.90;;
56075;SDS011;41951;49.022;12.066;2024-03-08T06:18:55;32.38;;;17.50;;
56075;SDS011;41951;49.022;12.066;2024-03-08T06:21:22;31.95;;;15.90;;
56075;SDS011;41951;49.022;12.066;2024-03-08T06:23:48;30.27;;;16.42;;
56075;SDS011;41951;49.022;12.066;2024-03-08T06:26:13;27.05;;;15.25;;
56075;SDS011;41951;49.022;12.066;2024-03-08T06:28:39;28.40;;;15.27;;
56075;SDS011;41951;49.022;12.066;2024-03-08T06:31:04;32.15;;;16.13;;
56075;SDS011;41951;49.022;12.066;2024-03-08T06:33:30;29.85;;;16.65;;
56075;SDS011;41951;49.022;12.066;2024-03-08T06:35:57;36.70;;;17.88;;
56075;SDS011;41951;49.022;12.066;2024-03-08T06:38:26;33.20;;;17.48;;
56075;SDS011;41951;49.022;12.066;2024-03-08T06:40:52;30.17;;;16.25;;
56075;SDS011;41951;49.022;12.066;2024-03-08T06:43:18;34.78;;;15.45;;
56075;SDS011;41951;49.022;12.066;2024-03-08T06:45:44;32.35;;;16.38;;
56075;SDS011;41951;49.022;12.066;2024-03-08T06:48:16;33.83;;;16.75;;
56075;SDS011;41951;49.022;12.066;2024-03-08T06:50:43;29.45;;;16.42;;
56075;SDS011;41951;49.022;12.066;2024-03-08T06:53:10;29.52;;;16.05;;
56075;SDS011;41951;49.022;12.066;2024-03-08T06:55:36;30.33;;;15.68;;
56075;SDS011;41951;49.022;12.066;2024-03-08T06:58:02;33.58;;;16.95;;
56075;SDS011;41951;49.022;12.066;2024-03-08T07:00:27;32.65;;;16.58;;
56075;SDS011;41951;49.022;12.066;2024-03-08T07:02:55;31.02;;;16.55;;
56075;SDS011;41951;49.022;12.066;2024-03-08T07:05:22;31.05;;;16.40;;
56075;SDS011;41951;49.022;12.066;2024-03-08T07:07:49;34.85;;;16.67;;
56075;SDS011;41951;49.022;12.066;2024-03-08T07:10:16;34.13;;;17.52;;
56075;SDS011;41951;49.022;12.066;2024-03-08T07:12:41;34.72;;;18.45;;
56075;SDS011;41951;49.022;12.066;2024-03-08T07:15:07;39.92;;;18.85;;
56075;SDS011;41951;49.022;12.066;2024-03-08T07:17:34;33.50;;;17.88;;
56075;SDS011;41951;49.022;12.066;2024-03-08T07:20:00;36.15;;;17.63;;
56075;SDS011;41951;49.022;12.066;2024-03-08T07:22:35;35.38;;;17.60;;
56075;SDS011;41951;49.022;12.066;2024-03-08T07:25:02;33.30;;;17.00;;
56075;SDS011;41951;49.022;12.066;2024-03-08T07:27:52;31.42;;;15.95;;
56075;SDS011;41951;49.022;12.066;2024-03-08T07:30:19;28.63;;;15.70;;
56075;SDS011;41951;49.022;12.066;2024-03-08T07:33:05;27.65;;;14.98;;
56075;SDS011;41951;49.022;12.066;2024-03-08T07:35:32;31.77;;;15.15;;
56075;SDS011;41951;49.022;12.066;2024-03-08T07:37:58;31.40;;;14.52;;
56075;SDS011;41951;49.022;12.066;2024-03-08T07:40:25;25.83;;;14.25;;
56075;SDS011;41951;49.022;12.066;2024-03-08T07:42:50;26.33;;;14.93;;
56075;SDS011;41951;49.022;12.066;2024-03-08T07:45:16;29.98;;;15.23;;
56075;SDS011;41951;49.022;12.066;2024-03-08T07:47:42;25.50;;;14.52;;
56075;SDS011;41951;49.022;12.066;2024-03-08T07:50:08;26.15;;;13.98;;
56075;SDS011;41951;49.022;12.066;2024-03-08T07:52:34;26.90;;;14.07;;
56075;SDS011;41951;49.022;12.066;2024-03-08T07:55:01;24.73;;;13.20;;
56075;SDS011;41951;49.022;12.066;2024-03-08T07:57:28;26.10;;;14.10;;
56075;SDS011;41951;49.022;12.066;2024-03-08T07:59:54;26.92;;;13.20;;
56075;SDS011;41951;49.022;12.066;2024-03-08T08:02:20;28.27;;;13.23;;
56075;SDS011;41951;49.022;12.066;2024-03-08T08:04:46;22.00;;;12.25;;
56075;SDS011;41951;49.022;12.066;2024-03-08T08:07:11;23.33;;;13.45;;
56075;SDS011;41951;49.022;12.066;2024-03-08T08:09:37;22.55;;;11.93;;
56075;SDS011;41951;49.022;12.066;2024-03-08T08:12:03;21.85;;;11.90;;
56075;SDS011;41951;49.022;12.066;2024-03-08T08:14:29;23.50;;;12.13;;
56075;SDS011;41951;49.022;12.066;2024-03-08T08:16:55;22.85;;;11.93;;
56075;SDS011;41951;49.022;12.066;2024-03-08T08:19:22;20.80;;;11.35;;
56075;SDS011;41951;49.022;12.066;2024-03-08T08:21:48;21.90;;;11.70;;
56075;SDS011;41951;49.022;12.066;2024-03-08T08:24:14;23.52;;;12.43;;
56075;SDS011;41951;49.022;12.066;2024-03-08T08:26:40;22.35;;;12.00;;
56075;SDS011;41951;49.022;12.066;2024-03-08T08:29:06;21.33;;;11.80;;
56075;SDS011;41951;49.022;12.066;2024-03-08T08:31:32;25.38;;;11.45;;
56075;SDS011;41951;49.022;12.066;2024-03-08T08:33:58;24.15;;;11.52;;
56075;SDS011;41951;49.022;12.066;2024-03-08T08:36:24;25.08;;;13.93;;
56075;SDS011;41951;49.022;12.066;2024-03-08T08:38:50;22.25;;;11.77;;
56075;SDS011;41951;49.022;12.066;2024-03-08T08:41:18;22.98;;;12.25;;
56075;SDS011;41951;49.022;12.066;2024-03-08T08:43:44;23.17;;;11.23;;
56075;SDS011;41951;49.022;12.066;2024-03-08T08:46:10;21.92;;;11.23;;
56075;SDS011;41951;49.022;12.066;2024-03-08T08:48:39;22.73;;;10.95;;
56075;SDS011;41951;49.022;12.066;2024-03-08T08:51:11;23.50;;;11.60;;
56075;SDS011;41951;49.022;12.066;2024-03-08T08:53:37;22.98;;;11.60;;
56075;SDS011;41951;49.022;12.066;2024-03-08T08:56:08;22.13;;;11.38;;
56075;SDS011;41951;49.022;12.066;2024-03-08T08:58:34;21.85;;;11.38;;
56075;SDS011;41951;49.022;12.066;2024-03-08T09:01:00;20.70;;;10.50;;
56075;SDS011;41951;49.022;12.066;2024-03-08T09:03:26;22.90;;;11.73;;
56075;SDS011;41951;49.022;12.066;2024-03-08T09:05:53;22.15;;;11.10;;
56075;SDS011;41951;49.022;12.066;2024-03-08T09:08:18;20.52;;;10.02;;
56075;SDS011;41951;49.022;12.066;2024-03-08T09:10:44;20.00;;;10.98;;
56075;SDS011;41951;49.022;12.066;2024-03-08T09:13:12;21.27;;;11.73;;
56075;SDS011;41951;49.022;12.066;2024-03-08T09:15:38;21.48;;;11.02;;
56075;SDS011;41951;49.022;12.066;2024-03-08T09:18:05;21.38;;;11.30;;
56075;SDS011;41951;49.022;12.066;2024-03-08T09:20:31;19.33;;;10.77;;
56075;SDS011;41951;49.022;12.066;2024-03-08T09:22:57;21.20;;;11.23;;
56075;SDS011;41951;49.022;12.066;2024-03-08T09:25:23;20.15;;;11.38;;
56075;SDS011;41951;49.022;12.066;2024-03-08T09:27:48;23.63;;;11.35;;
56075;SDS011;41951;49.022;12.066;2024-03-08T09:30:14;21.52;;;11.45;;
56075;SDS011;41951;49.022;12.066;2024-03-08T09:32:40;22.25;;;11.63;;
56075;SDS011;41951;49.022;12.066;2024-03-08T09:35:06;19.58;;;10.70;;
56075;SDS011;41951;49.022;12.066;2024-03-08T09:37:33;22.27;;;11.35;;
56075;SDS011;41951;49.022;12.066;2024-03-08T09:39:59;19.48;;;9.95;;
56075;SDS011;41951;49.022;12.066;2024-03-08T09:42:25;22.58;;;11.13;;
56075;SDS011;41951;49.022;12.066;2024-03-08T09:44:51;22.80;;;10.85;;
56075;SDS011;41951;49.022;12.066;2024-03-08T09:47:17;20.77;;;10.98;;
56075;SDS011;41951;49.022;12.066;2024-03-08T09:49:43;22.23;;;11.27;;
56075;SDS011;41951;49.022;12.066;2024-03-08T09:52:09;21.33;;;9.73;;
56075;SDS011;41951;49.022;12.066;2024-03-08T09:54:35;20.80;;;11.05;;
56075;SDS011;41951;49.022;12.066;2024-03-08T09:57:03;19.73;;;10.18;;
56075;SDS011;41951;49.022;12.066;2024-03-08T09:59:29;18.85;;;10.85;;
56075;SDS011;41951;49.022;12.066;2024-03-08T10:01:58;17.80;;;9.70;;
56075;SDS011;41951;49.022;12.066;2024-03-08T10:04:24;18.15;;;9.75;;
56075;SDS011;41951;49.022;12.066;2024-03-08T10:06:51;20.20;;;10.20;;
56075;SDS011;41951;49.022;12.066;2024-03-08T10:09:17;19.02;;;10.55;;
56075;SDS011;41951;49.022;12.066;2024-03-08T10:11:43;18.63;;;10.32;;
56075;SDS011;41951;49.022;12.066;2024-03-08T10:14:10;21.27;;;10.05;;
56075;SDS011;41951;49.022;12.066;2024-03-08T10:16:37;17.45;;;10.07;;
56075;SDS011;41951;49.022;12.066;2024-03-08T10:19:04;18.60;;;10.57;;
56075;SDS011;41951;49.022;12.066;2024-03-08T10:21:30;18.27;;;10.00;;
56075;SDS011;41951;49.022;12.066;2024-03-08T10:23:58;19.08;;;10.10;;
56075;SDS011;41951;49.022;12.066;2024-03-08T10:26:24;17.92;;;9.57;;
56075;SDS011;41951;49.022;12.066;2024-03-08T10:28:50;19.58;;;10.38;;
56075;SDS011;41951;49.022;12.066;2024-03-08T10:31:17;19.45;;;10.00;;
56075;SDS011;41951;49.022;12.066;2024-03-08T10:33:44;19.13;;;10.52;;
56075;SDS011;41951;49.022;12.066;2024-03-08T10:36:11;17.80;;;9.98;;
56075;SDS011;41951;49.022;12.066;2024-03-08T10:38:40;18.60;;;10.55;;
56075;SDS011;41951;49.022;12.066;2024-03-08T10:41:08;19.10;;;9.82;;
56075;SDS011;41951;49.022;12.066;2024-03-08T10:49:38;20.50;;;10.27;;
56075;SDS011;41951;49.022;12.066;2024-03-08T10:52:09;19.48;;;10.15;;
56075;SDS011;41951;49.022;12.066;2024-03-08T10:54:38;18.95;;;11.02;;
56075;SDS011;41951;49.022;12.066;2024-03-08T10:57:06;18.05;;;9.70;;
56075;SDS011;41951;49.022;12.066;2024-03-08T10:59:33;18.85;;;10.65;;
56075;SDS011;41951;49.022;12.066;2024-03-08T11:02:00;19.13;;;10.55;;
56075;SDS011;41951;49.022;12.066;2024-03-08T11:04:26;18.27;;;10.40;;
56075;SDS011;41951;49.022;12.066;2024-03-08T11:06:54;23.30;;;10.57;;
56075;SDS011;41951;49.022;12.066;2024-03-08T11:09:31;17.15;;;10.07;;
56075;SDS011;41951;49.022;12.066;2024-03-08T11:12:19;19.25;;;10.32;;
56075;SDS011;41951;49.022;12.066;2024-03-08T11:14:56;19.60;;;10.18;;
56075;SDS011;41951;49.022;12.066;2024-03-08T11:19:56;16.55;;;9.05;;
56075;SDS011;41951;49.022;12.066;2024-03-08T11:22:27;18.52;;;9.60;;
56075;SDS011;41951;49.022;12.066;2024-03-08T11:25:05;16.70;;;9.00;;
56075;SDS011;41951;49.022;12.066;2024-03-08T11:27:37;17.67;;;9.55;;
56075;SDS011;41951;49.022;12.066;2024-03-08T11:30:06;18.45;;;10.27;;
56075;SDS011;41951;49.022;12.066;2024-03-08T11:32:36;16.75;;;9.43;;
56075;SDS011;41951;49.022;12.066;2024-03-08T11:35:17;16.13;;;9.30;;
56075;SDS011;41951;49.022;12.066;2024-03-08T11:37:44;19.27;;;10.32;;
56075;SDS011;41951;49.022;12.066;2024-03-08T11:40:12;15.10;;;8.95;;
56075;SDS011;41951;49.022;12.066;2024-03-08T11:42:48;16.40;;;8.80;;
56075;SDS011;41951;49.022;12.066;2024-03-08T11:45:17;16.10;;;9.65;;
56075;SDS011;41951;49.022;12.066;2024-03-08T11:47:43;13.80;;;8.38;;
56075;SDS011;41951;49.022;12.066;2024-03-08T11:50:12;15.98;;;8.75;;
56075;SDS011;41951;49.022;12.066;2024-03-08T11:52:39;17.08;;;8.80;;
56075;SDS011;41951;49.022;12.066;2024-03-08T11:55:05;12.82;;;7.70;;
56075;SDS011;41951;49.022;12.066;2024-03-08T11:57:31;13.65;;;8.10;;
56075;SDS011;41951;49.022;12.066;2024-03-08T11:59:58;13.63;;;8.00;;
56075;SDS011;41951;49.022;12.066;2024-03-08T12:02:32;14.68;;;8.82;;
56075;SDS011;41951;49.022;12.066;2024-03-08T12:05:01;14.15;;;8.40;;
56075;SDS011;41951;49.022;12.066;2024-03-08T12:07:31;12.60;;;7.18;;
56075;SDS011;41951;49.022;12.066;2024-03-08T12:10:15;13.70;;;7.82;;
56075;SDS011;41951;49.022;12.066;2024-03-08T12:12:48;14.25;;;7.65;;
56075;SDS011;41951;49.022;12.066;2024-03-08T12:15:16;13.05;;;7.38;;
56075;SDS011;41951;49.022;12.066;2024-03-08T12:17:43;11.98;;;7.72;;
56075;SDS011;41951;49.022;12.066;2024-03-08T12:20:19;13.23;;;8.43;;
56075;SDS011;41951;49.022;12.066;2024-03-08T12:22:53;14.52;;;8.35;;
56075;SDS011;41951;49.022;12.066;2024-03-08T12:25:21;13.30;;;7.60;;
56075;SDS011;41951;49.022;12.066;2024-03-08T12:27:47;14.13;;;8.10;;
56075;SDS011;41951;49.022;12.066;2024-03-08T12:32:55;15.70;;;7.85;;
56075;SDS011;41951;49.022;12.066;2024-03-08T12:35:24;13.13;;;7.95;;
56075;SDS011;41951;49.022;12.066;2024-03-08T12:37:52;13.55;;;7.47;;
56075;SDS011;41951;49.022;12.066;2024-03-08T12:40:19;13.30;;;7.45;;
56075;SDS011;41951;49.022;12.066;2024-03-08T12:42:51;11.85;;;7.38;;
56075;SDS011;41951;49.022;12.066;2024-03-08T12:45:17;12.60;;;7.03;;
56075;SDS011;41951;49.022;12.066;2024-03-08T12:47:43;11.45;;;7.25;;
56075;SDS011;41951;49.022;12.066;2024-03-08T12:50:09;8.70;;;5.82;;
56075;SDS011;41951;49.022;12.066;2024-03-08T12:52:35;9.65;;;6.07;;
56075;SDS011;41951;49.022;12.066;2024-03-08T12:55:01;10.82;;;6.05;;
56075;SDS011;41951;49.022;12.066;2024-03-08T12:57:27;10.10;;;6.38;;
56075;SDS011;41951;49.022;12.066;2024-03-08T12:59:53;9.77;;;5.63;;
56075;SDS011;41951;49.022;12.066;2024-03-08T13:02:19;9.30;;;5.93;;
56075;SDS011;41951;49.022;12.066;2024-03-08T13:04:45;10.40;;;6.18;;
56075;SDS011;41951;49.022;12.066;2024-03-08T13:07:20;10.77;;;5.75;;
56075;SDS011;41951;49.022;12.066;2024-03-08T13:09:46;9.13;;;6.22;;
56075;SDS011;41951;49.022;12.066;2024-03-08T13:12:12;12.10;;;7.05;;
56075;SDS011;41951;49.022;12.066;2024-03-08T13:14:37;13.30;;;6.25;;
56075;SDS011;41951;49.022;12.066;2024-03-08T13:17:05;11.10;;;6.70;;
56075;SDS011;41951;49.022;12.066;2024-03-08T13:19:35;6.75;;;4.00;;
56075;SDS011;41951;49.022;12.066;2024-03-08T13:22:03;9.27;;;5.63;;
56075;SDS011;41951;49.022;12.066;2024-03-08T13:24:32;10.43;;;5.72;;
56075;SDS011;41951;49.022;12.066;2024-03-08T13:26:59;10.98;;;6.53;;
56075;SDS011;41951;49.022;12.066;2024-03-08T13:29:25;9.65;;;6.20;;
56075;SDS011;41951;49.022;12.066;2024-03-08T13:31:50;9.77;;;6.10;;
56075;SDS011;41951;49.022;12.066;2024-03-08T13:34:18;10.13;;;6.43;;
56075;SDS011;41951;49.022;12.066;2024-03-08T13:36:43;10.70;;;6.30;;
56075;SDS011;41951;49.022;12.066;2024-03-08T13:39:11;10.38;;;6.22;;
56075;SDS011;41951;49.022;12.066;2024-03-08T13:41:40;20.20;;;11.35;;
56075;SDS011;41951;49.022;12.066;2024-03-08T13:44:06;10.73;;;6.68;;
56075;SDS011;41951;49.022;12.066;2024-03-08T13:46:32;10.75;;;6.57;;
56075;SDS011;41951;49.022;12.066;2024-03-08T13:49:02;8.98;;;6.10;;
56075;SDS011;41951;49.022;12.066;2024-03-08T13:51:34;8.85;;;5.63;;
56075;SDS011;41951;49.022;12.066;2024-03-08T13:54:00;8.50;;;6.03;;
56075;SDS011;41951;49.022;12.066;2024-03-08T13:56:26;8.55;;;4.88;;
56075;SDS011;41951;49.022;12.066;2024-03-08T13:58:52;10.00;;;6.18;;
56075;SDS011;41951;49.022;12.066;2024-03-08T14:01:21;10.55;;;5.80;;
56075;SDS011;41951;49.022;12.066;2024-03-08T14:03:47;7.78;;;5.38;;
56075;SDS011;41951;49.022;12.066;2024-03-08T14:06:12;8.90;;;5.70;;
56075;SDS011;41951;49.022;12.066;2024-03-08T14:08:38;8.57;;;5.38;;
56075;SDS011;41951;49.022;12.066;2024-03-08T14:11:04;8.15;;;5.07;;
56075;SDS011;41951;49.022;12.066;2024-03-08T14:13:42;10.95;;;5.65;;
56075;SDS011;41951;49.022;12.066;2024-03-08T14:16:11;9.45;;;5.95;;
56075;SDS011;41951;49.022;12.066;2024-03-08T14:18:37;8.90;;;5.45;;
56075;SDS011;41951;49.022;12.066;2024-03-08T14:21:03;10.57;;;5.63;;
56075;SDS011;41951;49.022;12.066;2024-03-08T14:23:29;7.75;;;4.95;;
56075;SDS011;41951;49.022;12.066;2024-03-08T14:25:55;10.18;;;5.35;;